createdAt,value
2022-11-28T00:01:25.752Z,3.03
2022-11-28T00:03:53.546Z,3.13
2022-11-28T00:06:20.947Z,3.14
2022-11-28T00:08:48.539Z,3.16
2022-11-28T00:11:17.027Z,3.17
2022-11-28T00:13:45.697Z,3.21
2022-11-28T00:16:14.417Z,3.28
2022-11-28T00:18:41.582Z,3.33
2022-11-28T00:21:10.100Z,3.34
2022-11-28T00:23:37.184Z,3.34
2022-11-28T00:26:06.159Z,3.36
2022-11-28T00:28:33.225Z,3.36
2022-11-28T00:31:00.360Z,3.30
2022-11-28T00:33:27.367Z,3.30
2022-11-28T00:35:58.525Z,3.30
2022-11-28T00:38:25.586Z,3.37
2022-11-28T00:41:00.020Z,3.45
2022-11-28T00:43:27.160Z,3.51
2022-11-28T00:45:54.258Z,3.54
2022-11-28T00:48:21.397Z,3.54
2022-11-28T00:50:48.377Z,3.58
2022-11-28T00:53:15.627Z,3.50
2022-11-28T00:55:42.748Z,3.46
2022-11-28T00:58:09.812Z,3.44
2022-11-28T01:00:37.162Z,3.43
2022-11-28T01:03:04.755Z,3.51
2022-11-28T01:05:31.706Z,3.53
2022-11-28T01:07:58.993Z,3.44
2022-11-28T01:10:27.081Z,3.50
2022-11-28T01:12:54.158Z,3.55
2022-11-28T01:15:21.190Z,3.49
2022-11-28T01:17:48.261Z,3.47
2022-11-28T01:20:15.438Z,3.52
2022-11-28T01:22:42.487Z,3.52
2022-11-28T01:25:09.533Z,3.53
2022-11-28T01:27:36.576Z,3.52
2022-11-28T01:30:04.054Z,3.49
2022-11-28T01:32:31.031Z,3.50
2022-11-28T01:34:58.260Z,3.47
2022-11-28T01:37:25.448Z,3.52
2022-11-28T01:39:52.670Z,3.49
2022-11-28T01:42:20.340Z,3.51
2022-11-28T01:44:47.537Z,3.47
2022-11-28T01:47:17.854Z,3.48
2022-11-28T01:49:46.949Z,3.49
2022-11-28T01:52:17.924Z,3.52
2022-11-28T01:54:50.594Z,3.56
2022-11-28T01:57:20.984Z,3.59
2022-11-28T01:59:59.807Z,3.56
2022-11-28T02:02:34.561Z,3.51
2022-11-28T02:05:02.429Z,3.43
2022-11-28T02:07:29.814Z,3.50
2022-11-28T02:09:57.188Z,3.50
2022-11-28T02:12:30.454Z,3.44
2022-11-28T02:15:10.032Z,3.43
2022-11-28T02:17:44.020Z,3.50
2022-11-28T02:20:50.999Z,3.51
2022-11-28T02:23:41.643Z,3.50
2022-11-28T02:26:40.054Z,3.43
2022-11-28T02:29:07.289Z,3.40
2022-11-28T02:31:56.211Z,3.38
2022-11-28T02:34:40.337Z,3.41
2022-11-28T02:37:22.689Z,3.39
2022-11-28T02:40:03.327Z,3.45
2022-11-28T02:43:03.425Z,3.50
2022-11-28T02:45:39.994Z,3.61
2022-11-28T02:48:15.786Z,3.70
2022-11-28T02:51:06.931Z,3.71
2022-11-28T02:53:35.639Z,3.74
2022-11-28T02:56:03.653Z,3.79
2022-11-28T02:58:30.998Z,3.79
2022-11-28T03:00:58.411Z,3.82
2022-11-28T03:03:46.218Z,3.77
2022-11-28T03:06:41.993Z,3.76
2022-11-28T03:09:29.720Z,3.76
2022-11-28T03:12:12.183Z,3.72
2022-11-28T03:14:50.872Z,3.68
2022-11-28T03:17:33.132Z,3.71
2022-11-28T03:20:25.035Z,3.72
2022-11-28T03:23:01.017Z,3.73
2022-11-28T03:25:38.821Z,3.68
2022-11-28T03:28:05.919Z,3.68
2022-11-28T03:30:45.772Z,3.77
2022-11-28T03:33:16.237Z,3.76
2022-11-28T03:35:51.520Z,3.73
2022-11-28T03:38:25.060Z,3.67
2022-11-28T03:40:56.271Z,3.68
2022-11-28T03:43:28.980Z,3.66
2022-11-28T03:46:02.159Z,3.68
2022-11-28T03:48:36.855Z,3.70
2022-11-28T03:51:22.624Z,3.72
2022-11-28T03:54:10.601Z,3.75
2022-11-28T03:57:00.727Z,3.82
2022-11-28T03:59:35.907Z,3.83
2022-11-28T04:02:45.313Z,3.84
2022-11-28T04:05:32.281Z,3.80
2022-11-28T04:08:29.683Z,3.82
2022-11-28T04:11:23.627Z,3.70
2022-11-28T04:14:00.695Z,3.78
2022-11-28T04:16:40.210Z,3.77
2022-11-28T04:19:19.293Z,3.79
2022-11-28T04:21:57.999Z,3.77
2022-11-28T04:24:32.683Z,3.73
2022-11-28T04:27:04.951Z,3.73
2022-11-28T04:29:37.976Z,3.77
2022-11-28T04:32:08.093Z,3.74
2022-11-28T04:34:37.322Z,3.78
2022-11-28T04:37:10.144Z,3.78
2022-11-28T04:39:41.978Z,3.76
2022-11-28T04:42:14.471Z,3.80
2022-11-28T04:44:46.731Z,3.79
2022-11-28T04:47:14.363Z,3.83
2022-11-28T04:49:42.047Z,3.84
2022-11-28T04:52:17.635Z,3.85
2022-11-28T04:55:03.392Z,3.88
2022-11-28T04:57:35.328Z,3.91
2022-11-28T05:00:06.177Z,3.92
2022-11-28T05:02:35.473Z,3.97
2022-11-28T05:05:28.556Z,3.96
2022-11-28T05:07:57.768Z,3.95
2022-11-28T05:10:25.132Z,3.92
2022-11-28T05:12:52.373Z,3.95
2022-11-28T05:15:19.647Z,4.01
2022-11-28T05:17:47.169Z,4.05
2022-11-28T05:20:14.773Z,4.06
2022-11-28T05:22:42.171Z,4.03
2022-11-28T05:25:09.599Z,4.02
2022-11-28T05:27:39.273Z,3.96
2022-11-28T05:30:09.129Z,3.93
2022-11-28T05:32:36.939Z,3.94
2022-11-28T05:35:04.845Z,3.95
2022-11-28T05:37:32.615Z,3.92
2022-11-28T05:39:59.905Z,3.94
2022-11-28T05:42:28.402Z,3.94
2022-11-28T05:44:56.222Z,3.92
2022-11-28T05:47:25.934Z,3.96
2022-11-28T05:49:53.355Z,3.98
2022-11-28T05:52:20.597Z,3.98
2022-11-28T05:54:47.934Z,4.03
2022-11-28T05:57:15.824Z,4.02
2022-11-28T05:59:44.855Z,4.09
2022-11-28T06:02:12.508Z,4.06
2022-11-28T06:04:42.202Z,4.03
2022-11-28T06:07:09.594Z,4.06
2022-11-28T06:09:36.822Z,4.12
2022-11-28T06:12:04.167Z,4.07
2022-11-28T06:14:32.783Z,4.06
2022-11-28T06:17:00.068Z,4.05
2022-11-28T06:19:27.375Z,4.03
2022-11-28T06:21:56.664Z,4.04
2022-11-28T06:24:24.074Z,4.01
2022-11-28T06:26:51.342Z,4.03
2022-11-28T06:29:18.785Z,4.18
2022-11-28T06:31:46.311Z,4.28
2022-11-28T06:34:13.898Z,4.26
2022-11-28T06:36:41.308Z,4.26
2022-11-28T06:39:13.444Z,4.34
2022-11-28T06:41:41.845Z,4.29
2022-11-28T06:44:13.498Z,4.24
2022-11-28T06:46:41.457Z,4.25
2022-11-28T06:49:13.014Z,4.26
2022-11-28T06:51:41.920Z,4.19
2022-11-28T06:54:09.790Z,4.22
2022-11-28T06:56:39.361Z,4.20
2022-11-28T06:59:06.810Z,4.21
2022-11-28T07:01:34.598Z,4.16
2022-11-28T07:04:02.244Z,4.16
2022-11-28T07:06:29.835Z,4.21
2022-11-28T07:08:58.663Z,4.14
2022-11-28T07:11:31.105Z,4.16
2022-11-28T07:14:01.492Z,4.14
2022-11-28T07:16:31.563Z,4.16
2022-11-28T07:18:59.595Z,4.23
2022-11-28T07:21:27.913Z,4.49
2022-11-28T07:23:55.402Z,4.48
2022-11-28T07:26:25.335Z,4.48
2022-11-28T07:28:52.855Z,4.41
2022-11-28T07:31:22.901Z,4.35
2022-11-28T07:33:51.177Z,4.37
2022-11-28T07:36:24.821Z,4.43
2022-11-28T07:38:56.720Z,4.40
2022-11-28T07:41:41.744Z,4.38
2022-11-28T07:44:11.744Z,4.46
2022-11-28T07:46:39.546Z,4.51
2022-11-28T07:49:07.047Z,4.55
2022-11-28T07:51:34.923Z,4.54
2022-11-28T07:54:05.853Z,4.61
2022-11-28T07:57:10.346Z,4.68
2022-11-28T07:59:22.930Z,4.73
2022-11-28T08:01:50.536Z,4.83
2022-11-28T08:04:18.076Z,4.86
2022-11-28T08:06:45.803Z,4.91
2022-11-28T08:09:13.173Z,4.91
2022-11-28T08:11:41.126Z,4.94
2022-11-28T08:14:08.746Z,4.88
2022-11-28T08:16:37.018Z,4.98
2022-11-28T08:19:04.508Z,5.08
2022-11-28T08:21:33.423Z,5.16
2022-11-28T08:24:02.736Z,5.22
2022-11-28T08:26:32.110Z,5.26
2022-11-28T08:29:01.057Z,5.29
2022-11-28T08:31:31.686Z,5.46
2022-11-28T08:34:01.194Z,5.50
2022-11-28T08:36:29.608Z,5.52
2022-11-28T08:41:46.961Z,5.38
2022-11-28T08:44:14.393Z,5.26
2022-11-28T08:46:41.944Z,5.23
2022-11-28T08:49:09.257Z,5.18
2022-11-28T08:51:36.752Z,5.15
2022-11-28T08:54:04.158Z,5.13
2022-11-28T08:56:31.784Z,5.13
2022-11-28T08:58:59.694Z,5.23
2022-11-28T09:01:27.766Z,5.30
2022-11-28T09:03:55.715Z,5.35
2022-11-28T09:06:23.313Z,5.37
2022-11-28T09:08:51.260Z,5.44
2022-11-28T09:11:19.790Z,5.47
2022-11-28T09:13:46.818Z,5.51
2022-11-28T09:16:14.587Z,5.57
2022-11-28T09:18:41.921Z,5.63
2022-11-28T09:21:10.277Z,5.69
2022-11-28T09:23:38.675Z,5.75
2022-11-28T09:26:13.667Z,5.87
2022-11-28T09:28:40.786Z,5.92
2022-11-28T09:31:08.123Z,5.96
2022-11-28T09:33:35.889Z,6.02
2022-11-28T09:36:10.950Z,5.92
2022-11-28T09:38:38.661Z,5.80
2022-11-28T09:41:24.464Z,5.78
2022-11-28T09:43:55.077Z,5.92
2022-11-28T09:46:26.372Z,5.98
2022-11-28T09:48:55.846Z,6.02
2022-11-28T09:51:42.400Z,6.11
2022-11-28T09:54:18.606Z,6.11
2022-11-28T09:56:48.587Z,6.28
2022-11-28T09:59:28.016Z,6.24
2022-11-28T10:02:16.985Z,6.30
2022-11-28T10:04:57.833Z,6.30
2022-11-28T10:07:54.915Z,6.34
2022-11-28T10:10:50.439Z,6.31
2022-11-28T10:14:07.860Z,6.20
2022-11-28T10:17:14.923Z,6.17
2022-11-28T10:19:59.464Z,6.17
2022-11-28T10:22:52.379Z,6.13
2022-11-28T10:25:34.958Z,6.19
2022-11-28T10:28:06.656Z,6.15
2022-11-28T10:30:40.791Z,6.13
2022-11-28T10:33:24.405Z,6.27
2022-11-28T10:36:00.332Z,6.35
2022-11-28T10:38:31.687Z,6.52
2022-11-28T10:41:05.232Z,6.55
2022-11-28T10:43:46.741Z,6.71
2022-11-28T10:46:57.798Z,6.61
2022-11-28T10:49:31.464Z,6.51
2022-11-28T10:51:58.859Z,6.46
2022-11-28T10:54:38.176Z,6.51
2022-11-28T10:57:08.355Z,6.72
2022-11-28T10:59:51.155Z,6.86
2022-11-28T11:02:50.851Z,6.60
2022-11-28T11:05:21.808Z,6.69
2022-11-28T11:07:58.925Z,6.52
2022-11-28T11:10:32.861Z,6.48
2022-11-28T11:13:00.260Z,6.50
2022-11-28T11:15:33.403Z,6.50
2022-11-28T11:18:06.014Z,6.63
2022-11-28T11:20:39.125Z,6.61
2022-11-28T11:23:21.167Z,6.58
2022-11-28T11:25:56.170Z,6.56
2022-11-28T11:28:41.971Z,6.58
2022-11-28T11:31:18.317Z,6.62
2022-11-28T11:33:46.134Z,6.54
2022-11-28T11:36:26.334Z,6.60
2022-11-28T11:39:06.229Z,6.67
2022-11-28T11:41:34.425Z,6.64
2022-11-28T11:44:29.943Z,6.66
2022-11-28T11:47:01.796Z,6.65
2022-11-28T11:49:48.344Z,6.69
2022-11-28T11:52:26.832Z,6.77
2022-11-28T11:54:57.344Z,6.84
2022-11-28T11:57:33.987Z,6.87
2022-11-28T12:00:18.216Z,6.76
2022-11-28T12:02:54.318Z,6.87
2022-11-28T12:05:28.565Z,6.89
2022-11-28T12:08:04.939Z,6.90
2022-11-28T12:10:40.280Z,6.88
2022-11-28T12:13:19.319Z,6.89
2022-11-28T12:16:26.553Z,6.92
2022-11-28T12:19:21.378Z,7.13
2022-11-28T12:22:24.075Z,7.03
2022-11-28T12:25:10.671Z,7.03
2022-11-28T12:28:20.084Z,7.09
2022-11-28T12:30:56.937Z,6.98
2022-11-28T12:33:33.403Z,7.01
2022-11-28T12:36:03.306Z,6.98
2022-11-28T12:38:52.655Z,7.04
2022-11-28T12:41:38.308Z,7.04
2022-11-28T12:44:29.612Z,7.05
2022-11-28T12:47:09.172Z,6.98
2022-11-28T12:49:48.709Z,7.02
2022-11-28T12:52:31.504Z,6.95
2022-11-28T12:55:13.815Z,6.98
2022-11-28T12:58:08.031Z,7.03
2022-11-28T13:01:08.696Z,6.98
2022-11-28T13:04:07.801Z,6.93
2022-11-28T13:06:58.738Z,6.95
2022-11-28T13:09:38.507Z,7.00
2022-11-28T13:12:45.858Z,6.98
2022-11-28T13:15:29.428Z,6.95
2022-11-28T13:18:27.362Z,6.87
2022-11-28T13:21:25.807Z,6.97
2022-11-28T13:24:28.343Z,6.93
2022-11-28T13:27:33.099Z,6.96
2022-11-28T13:30:38.662Z,6.85
2022-11-28T13:33:48.035Z,6.85
2022-11-28T13:40:28.651Z,6.69
2022-11-28T13:46:20.542Z,6.82
2022-11-28T13:52:30.781Z,6.67
2022-11-28T13:55:01.810Z,6.78
2022-11-28T13:57:36.389Z,6.74
2022-11-28T14:00:18.990Z,6.62
2022-11-28T14:02:56.065Z,6.67
2022-11-28T14:05:37.592Z,6.58
2022-11-28T14:08:10.793Z,6.66
2022-11-28T14:14:08.184Z,6.46
2022-11-28T14:17:05.140Z,6.58
2022-11-28T14:19:56.147Z,6.51
2022-11-28T14:22:53.085Z,6.50
2022-11-28T14:25:44.794Z,6.43
2022-11-28T14:28:43.514Z,6.41
2022-11-28T14:31:55.209Z,6.29
2022-11-28T14:34:50.525Z,6.35
2022-11-28T14:37:29.679Z,6.33
2022-11-28T14:40:01.447Z,6.51
2022-11-28T14:43:05.855Z,6.24
2022-11-28T14:46:16.582Z,6.20
2022-11-28T14:49:01.460Z,6.17
2022-11-28T14:51:45.911Z,6.14
2022-11-28T14:54:43.764Z,6.05
2022-11-28T15:00:56.985Z,6.04
2022-11-28T15:04:09.708Z,5.92
2022-11-28T15:10:18.927Z,5.79
2022-11-28T15:13:19.065Z,5.75
2022-11-28T15:15:56.673Z,5.67
2022-11-28T15:18:35.614Z,5.69
2022-11-28T15:21:13.464Z,5.64
2022-11-28T15:23:44.267Z,5.56
2022-11-28T15:26:22.252Z,5.64
2022-11-28T15:29:13.169Z,5.70
2022-11-28T15:31:43.387Z,5.78
2022-11-28T15:34:26.531Z,5.74
2022-11-28T15:37:07.337Z,5.73
2022-11-28T15:39:49.148Z,5.76
2022-11-28T15:42:41.118Z,5.85
2022-11-28T15:45:23.920Z,5.87
2022-11-28T15:47:55.392Z,5.91
2022-11-28T15:50:26.112Z,5.99
2022-11-28T15:52:59.424Z,5.97
2022-11-28T15:55:34.534Z,5.92
2022-11-28T15:58:12.018Z,5.93
2022-11-28T16:00:41.651Z,5.92
2022-11-28T16:03:15.956Z,5.89
2022-11-28T16:05:43.922Z,5.92
2022-11-28T16:09:07.168Z,5.82
2022-11-28T16:11:36.323Z,5.82
2022-11-28T16:14:09.894Z,5.74
2022-11-28T16:16:39.054Z,5.64
2022-11-28T16:19:14.763Z,5.59
2022-11-28T16:21:52.168Z,5.50
2022-11-28T16:24:32.202Z,5.45
2022-11-28T16:27:05.412Z,5.41
2022-11-28T16:29:35.228Z,5.43
2022-11-28T16:32:07.929Z,5.31
2022-11-28T16:34:47.042Z,5.29
2022-11-28T16:37:19.172Z,5.26
2022-11-28T16:39:46.781Z,5.15
2022-11-28T16:42:17.856Z,5.13
2022-11-28T16:44:45.291Z,5.13
2022-11-28T16:47:33.008Z,5.16
2022-11-28T16:50:15.453Z,5.14
2022-11-28T16:52:51.226Z,5.12
2022-11-28T16:55:33.779Z,5.17
2022-11-28T16:58:10.388Z,5.13
2022-11-28T17:00:40.440Z,5.12
2022-11-28T17:03:40.975Z,5.13
2022-11-28T17:06:40.661Z,5.04
2022-11-28T17:09:11.703Z,4.94
2022-11-28T17:12:02.167Z,4.99
2022-11-28T17:14:30.119Z,4.98
2022-11-28T17:16:57.699Z,5.00
2022-11-28T17:19:25.659Z,5.01
2022-11-28T17:21:56.849Z,4.93
2022-11-28T17:24:33.022Z,4.90
2022-11-28T17:27:00.997Z,4.89
2022-11-28T17:29:29.170Z,4.87
2022-11-28T17:31:58.818Z,4.86
2022-11-28T17:34:31.178Z,4.84
2022-11-28T17:36:59.816Z,4.84
2022-11-28T17:39:27.628Z,4.80
2022-11-28T17:41:56.799Z,4.86
2022-11-28T17:44:33.771Z,4.91
2022-11-28T17:47:02.741Z,4.84
2022-11-28T17:49:33.663Z,4.78
2022-11-28T17:52:01.036Z,4.74
2022-11-28T17:54:29.554Z,4.76
2022-11-28T17:56:57.645Z,4.73
2022-11-28T17:59:26.992Z,4.76
2022-11-28T18:01:54.538Z,4.76
2022-11-28T18:04:25.351Z,4.75
2022-11-28T18:06:52.712Z,4.78
2022-11-28T18:09:20.307Z,4.74
2022-11-28T18:11:48.175Z,4.74
2022-11-28T18:14:18.200Z,4.78
2022-11-28T18:16:47.077Z,4.77
2022-11-28T18:19:14.438Z,4.78
2022-11-28T18:21:42.000Z,4.77
2022-11-28T18:24:09.875Z,4.75
2022-11-28T18:26:37.696Z,4.72
2022-11-28T18:29:06.964Z,4.73
2022-11-28T18:31:35.173Z,4.70
2022-11-28T18:34:05.926Z,4.72
2022-11-28T18:36:36.327Z,4.65
2022-11-28T18:39:07.089Z,4.70
2022-11-28T18:41:35.089Z,4.69
2022-11-28T18:44:04.867Z,4.68
2022-11-28T18:46:34.816Z,4.61
2022-11-28T18:49:03.389Z,4.56
2022-11-28T18:51:32.760Z,4.55
2022-11-28T18:54:03.961Z,4.52
2022-11-28T18:56:32.297Z,4.49
2022-11-28T18:58:59.749Z,4.49
2022-11-28T19:01:31.288Z,4.49
2022-11-28T19:04:01.613Z,4.48
2022-11-28T19:06:29.891Z,4.44
2022-11-28T19:08:59.022Z,4.39
2022-11-28T19:11:28.596Z,4.37
2022-11-28T19:13:57.564Z,4.35
2022-11-28T19:16:27.278Z,4.30
2022-11-28T19:18:57.585Z,4.28
2022-11-28T19:21:28.145Z,4.28
2022-11-28T19:23:59.084Z,4.30
2022-11-28T19:26:30.048Z,4.32
2022-11-28T19:28:59.922Z,4.35
2022-11-28T19:31:33.068Z,4.38
2022-11-28T19:34:03.734Z,4.43
2022-11-28T19:36:34.463Z,4.44
2022-11-28T19:39:03.565Z,4.44
2022-11-28T19:41:32.224Z,4.45
2022-11-28T19:43:59.707Z,4.42
2022-11-28T19:46:35.036Z,4.41
2022-11-28T19:49:05.673Z,4.40
2022-11-28T19:51:34.287Z,4.38
2022-11-28T19:54:03.882Z,4.39
2022-11-28T19:56:33.790Z,4.35
2022-11-28T19:59:01.190Z,4.35
2022-11-28T20:01:28.824Z,4.29
2022-11-28T20:03:59.332Z,4.34
2022-11-28T20:06:30.235Z,4.31
2022-11-28T20:09:01.692Z,4.35
2022-11-28T20:11:32.384Z,4.34
2022-11-28T20:14:10.305Z,4.31
2022-11-28T20:16:40.430Z,4.30
2022-11-28T20:19:10.643Z,4.28
2022-11-28T20:21:38.445Z,4.31
2022-11-28T20:24:08.179Z,4.27
2022-11-28T20:26:39.273Z,4.26
2022-11-28T20:29:08.306Z,4.32
2022-11-28T20:31:38.472Z,4.31
2022-11-28T20:34:06.673Z,4.29
2022-11-28T20:36:34.336Z,4.29
2022-11-28T20:39:02.528Z,4.28
2022-11-28T20:41:30.517Z,4.30
2022-11-28T20:44:01.713Z,4.31
2022-11-28T20:46:31.829Z,4.36
2022-11-28T20:49:03.185Z,4.37
2022-11-28T20:51:32.859Z,4.39
2022-11-28T20:54:01.157Z,4.44
2022-11-28T20:56:31.941Z,4.40
2022-11-28T20:59:01.660Z,4.37
2022-11-28T21:01:35.472Z,4.36
2022-11-28T21:04:05.548Z,4.37
2022-11-28T21:06:35.211Z,4.37
2022-11-28T21:09:04.239Z,4.33
2022-11-28T21:11:55.603Z,4.32
2022-11-28T21:14:20.087Z,4.35
2022-11-28T21:16:47.671Z,4.32
2022-11-28T21:19:15.321Z,4.33
2022-11-28T21:21:43.257Z,4.26
2022-11-28T21:24:12.868Z,4.21
2022-11-28T21:26:45.263Z,4.23
2022-11-28T21:29:15.538Z,4.21
2022-11-28T21:31:44.771Z,4.17
2022-11-28T21:34:17.747Z,4.23
2022-11-28T21:36:45.913Z,4.27
2022-11-28T21:39:16.175Z,4.17
2022-11-28T21:41:43.509Z,4.16
2022-11-28T21:44:11.017Z,4.16
2022-11-28T21:46:38.331Z,4.28
2022-11-28T21:49:05.981Z,4.21
2022-11-28T21:51:39.071Z,4.19
2022-11-28T21:54:06.988Z,4.16
2022-11-28T21:56:34.662Z,4.20
2022-11-28T21:59:02.037Z,4.27
2022-11-28T22:01:30.114Z,4.28
2022-11-28T22:06:45.747Z,4.29
2022-11-28T22:09:14.803Z,4.25
2022-11-28T22:11:42.232Z,4.29
2022-11-28T22:14:09.644Z,4.32
2022-11-28T22:16:37.549Z,4.33
2022-11-28T22:19:04.924Z,4.32
2022-11-28T22:24:21.387Z,4.36
2022-11-28T22:26:50.115Z,4.41
2022-11-28T22:29:18.849Z,4.44
2022-11-28T22:31:47.102Z,4.39
2022-11-28T22:34:14.707Z,4.43
2022-11-28T22:36:41.996Z,4.42
2022-11-28T22:39:14.532Z,4.41
2022-11-28T22:41:42.835Z,4.40
2022-11-28T22:44:10.796Z,4.44
2022-11-28T22:46:38.550Z,4.40
2022-11-28T22:49:06.943Z,4.40
2022-11-28T22:51:35.435Z,4.43
2022-11-28T22:54:04.278Z,4.40
2022-11-28T22:56:33.712Z,4.38
2022-11-28T22:59:01.535Z,4.37
2022-11-28T23:01:32.818Z,4.39
2022-11-28T23:04:01.089Z,4.33
2022-11-28T23:06:32.123Z,4.32
2022-11-28T23:09:01.266Z,4.28
2022-11-28T23:11:32.889Z,4.28
2022-11-28T23:14:01.384Z,4.22
2022-11-28T23:16:30.293Z,4.17
2022-11-28T23:19:00.304Z,4.08
2022-11-28T23:21:36.575Z,4.05
2022-11-28T23:24:05.570Z,4.03
2022-11-28T23:26:34.172Z,3.88
2022-11-28T23:29:04.692Z,3.87
2022-11-28T23:31:34.742Z,3.84
2022-11-28T23:34:02.277Z,3.88
2022-11-28T23:36:42.143Z,3.84
2022-11-28T23:39:21.614Z,3.77
2022-11-28T23:41:50.070Z,3.74
2022-11-28T23:44:18.971Z,3.76
2022-11-28T23:46:47.106Z,3.83
2022-11-28T23:49:14.401Z,3.77
2022-11-28T23:51:42.179Z,3.67
2022-11-28T23:54:10.923Z,3.76
2022-11-28T23:56:39.621Z,3.75
2022-11-28T23:59:08.413Z,3.76
